sensor_id;sensor_type;location;lat;lon;timestamp;temperature;humidity
35635;DHT22;21757;43.610;1.440;2022-11-11T00:01:05;10.10;99.90
35635;DHT22;21757;43.610;1.440;2022-11-11T00:03:31;10.10;99.90
35635;DHT22;21757;43.610;1.440;2022-11-11T00:06:05;10.10;99.90
35635;DHT22;21757;43.610;1.440;2022-11-11T00:08:31;10.00;99.90
35635;DHT22;21757;43.610;1.440;2022-11-11T00:11:10;10.00;99.90
35635;DHT22;21757;43.610;1.440;2022-11-11T00:13:37;9.90;99.90
35635;DHT22;21757;43.610;1.440;2022-11-11T00:16:15;9.90;99.90
35635;DHT22;21757;43.610;1.440;2022-11-11T00:18:42;9.80;99.90
35635;DHT22;21757;43.610;1.440;2022-11-11T00:21:27;9.80;99.90
35635;DHT22;21757;43.610;1.440;2022-11-11T00:24:23;9.70;99.90
35635;DHT22;21757;43.610;1.440;2022-11-11T00:27:09;9.70;99.90
35635;DHT22;21757;43.610;1.440;2022-11-11T00:29:36;9.70;99.90
35635;DHT22;21757;43.610;1.440;2022-11-11T00:32:03;9.70;99.90
35635;DHT22;21757;43.610;1.440;2022-11-11T00:34:47;9.70;99.90
35635;DHT22;21757;43.610;1.440;2022-11-11T00:37:33;9.70;99.90
35635;DHT22;21757;43.610;1.440;2022-11-11T00:39:59;9.70;99.90
35635;DHT22;21757;43.610;1.440;2022-11-11T00:42:25;9.80;99.90
35635;DHT22;21757;43.610;1.440;2022-11-11T00:44:50;9.80;99.90
35635;DHT22;21757;43.610;1.440;2022-11-11T00:47:16;9.80;99.90
35635;DHT22;21757;43.610;1.440;2022-11-11T00:50:01;9.80;99.90
35635;DHT22;21757;43.610;1.440;2022-11-11T00:52:46;9.80;99.90
35635;DHT22;21757;43.610;1.440;2022-11-11T00:55:12;9.80;99.90
35635;DHT22;21757;43.610;1.440;2022-11-11T00:57:38;9.80;99.90
35635;DHT22;21757;43.610;1.440;2022-11-11T01:00:04;9.80;99.90
35635;DHT22;21757;43.610;1.440;2022-11-11T01:02:30;9.70;99.90
35635;DHT22;21757;43.610;1.440;2022-11-11T01:04:55;9.80;99.90
35635;DHT22;21757;43.610;1.440;2022-11-11T01:07:21;9.70;99.90
35635;DHT22;21757;43.610;1.440;2022-11-11T01:09:47;9.70;99.90
35635;DHT22;21757;43.610;1.440;2022-11-11T01:12:13;9.70;99.90
35635;DHT22;21757;43.610;1.440;2022-11-11T01:14:39;9.70;99.90
35635;DHT22;21757;43.610;1.440;2022-11-11T01:17:05;9.70;99.90
35635;DHT22;21757;43.610;1.440;2022-11-11T01:19:31;9.70;99.90
35635;DHT22;21757;43.610;1.440;2022-11-11T01:21:57;9.70;99.90
35635;DHT22;21757;43.610;1.440;2022-11-11T01:24:23;9.70;99.90
35635;DHT22;21757;43.610;1.440;2022-11-11T01:26:49;9.70;99.90
35635;DHT22;21757;43.610;1.440;2022-11-11T01:29:14;9.70;99.90
35635;DHT22;21757;43.610;1.440;2022-11-11T01:31:40;9.70;99.90
35635;DHT22;21757;43.610;1.440;2022-11-11T01:34:06;9.70;99.90
35635;DHT22;21757;43.610;1.440;2022-11-11T01:36:31;9.70;99.90
35635;DHT22;21757;43.610;1.440;2022-11-11T01:38:59;9.60;99.90
35635;DHT22;21757;43.610;1.440;2022-11-11T01:41:33;9.60;99.90
35635;DHT22;21757;43.610;1.440;2022-11-11T01:46:32;9.60;99.90
35635;DHT22;21757;43.610;1.440;2022-11-11T01:51:54;9.60;99.90
35635;DHT22;21757;43.610;1.440;2022-11-11T01:54:25;9.60;99.90
35635;DHT22;21757;43.610;1.440;2022-11-11T01:56:57;9.70;99.90
35635;DHT22;21757;43.610;1.440;2022-11-11T01:59:25;9.70;99.90
35635;DHT22;21757;43.610;1.440;2022-11-11T02:01:51;9.60;99.90
35635;DHT22;21757;43.610;1.440;2022-11-11T02:04:17;9.60;99.90
35635;DHT22;21757;43.610;1.440;2022-11-11T02:07:06;9.60;99.90
35635;DHT22;21757;43.610;1.440;2022-11-11T02:09:33;9.60;99.90
35635;DHT22;21757;43.610;1.440;2022-11-11T02:12:03;9.60;99.90
35635;DHT22;21757;43.610;1.440;2022-11-11T02:14:51;9.60;99.90
35635;DHT22;21757;43.610;1.440;2022-11-11T02:17:18;9.50;99.90
35635;DHT22;21757;43.610;1.440;2022-11-11T02:19:48;9.50;99.90
35635;DHT22;21757;43.610;1.440;2022-11-11T02:22:27;9.50;99.90
35635;DHT22;21757;43.610;1.440;2022-11-11T02:24:55;9.50;99.90
35635;DHT22;21757;43.610;1.440;2022-11-11T02:27:22;9.50;99.90
35635;DHT22;21757;43.610;1.440;2022-11-11T02:29:51;9.50;99.90
35635;DHT22;21757;43.610;1.440;2022-11-11T02:32:18;9.60;99.90
35635;DHT22;21757;43.610;1.440;2022-11-11T02:34:44;9.60;99.90
35635;DHT22;21757;43.610;1.440;2022-11-11T02:37:09;9.60;99.90
35635;DHT22;21757;43.610;1.440;2022-11-11T02:39:41;9.60;99.90
35635;DHT22;21757;43.610;1.440;2022-11-11T02:42:11;9.60;99.90
35635;DHT22;21757;43.610;1.440;2022-11-11T02:44:38;9.60;99.90
35635;DHT22;21757;43.610;1.440;2022-11-11T02:47:04;9.60;99.90
35635;DHT22;21757;43.610;1.440;2022-11-11T02:49:30;9.50;99.90
35635;DHT22;21757;43.610;1.440;2022-11-11T02:51:56;9.50;99.90
35635;DHT22;21757;43.610;1.440;2022-11-11T02:54:22;9.50;99.90
35635;DHT22;21757;43.610;1.440;2022-11-11T02:56:47;9.50;99.90
35635;DHT22;21757;43.610;1.440;2022-11-11T02:59:31;9.50;99.90
35635;DHT22;21757;43.610;1.440;2022-11-11T03:01:57;9.50;99.90
35635;DHT22;21757;43.610;1.440;2022-11-11T03:04:23;9.50;99.90
35635;DHT22;21757;43.610;1.440;2022-11-11T03:06:48;9.50;99.90
35635;DHT22;21757;43.610;1.440;2022-11-11T03:09:14;9.50;99.90
35635;DHT22;21757;43.610;1.440;2022-11-11T03:11:40;9.50;99.90
35635;DHT22;21757;43.610;1.440;2022-11-11T03:14:05;9.50;99.90
35635;DHT22;21757;43.610;1.440;2022-11-11T03:16:32;9.50;99.90
35635;DHT22;21757;43.610;1.440;2022-11-11T03:19:17;9.50;99.90
35635;DHT22;21757;43.610;1.440;2022-11-11T03:21:43;9.50;99.90
35635;DHT22;21757;43.610;1.440;2022-11-11T03:24:09;9.50;99.90
35635;DHT22;21757;43.610;1.440;2022-11-11T03:26:36;9.40;99.90
35635;DHT22;21757;43.610;1.440;2022-11-11T03:29:03;9.40;99.90
35635;DHT22;21757;43.610;1.440;2022-11-11T03:31:28;9.40;99.90
35635;DHT22;21757;43.610;1.440;2022-11-11T03:33:54;9.40;99.90
35635;DHT22;21757;43.610;1.440;2022-11-11T03:36:20;9.40;99.90
35635;DHT22;21757;43.610;1.440;2022-11-11T03:39:05;9.40;99.90
35635;DHT22;21757;43.610;1.440;2022-11-11T03:41:31;9.40;99.90
35635;DHT22;21757;43.610;1.440;2022-11-11T03:43:57;9.40;99.90
35635;DHT22;21757;43.610;1.440;2022-11-11T03:46:22;9.40;99.90
35635;DHT22;21757;43.610;1.440;2022-11-11T03:48:48;9.40;99.90
35635;DHT22;21757;43.610;1.440;2022-11-11T03:51:13;9.30;99.90
35635;DHT22;21757;43.610;1.440;2022-11-11T03:53:39;9.30;99.90
35635;DHT22;21757;43.610;1.440;2022-11-11T03:56:05;9.30;99.90
35635;DHT22;21757;43.610;1.440;2022-11-11T03:58:31;9.40;99.90
35635;DHT22;21757;43.610;1.440;2022-11-11T04:00:56;9.50;99.90
35635;DHT22;21757;43.610;1.440;2022-11-11T04:03:22;9.50;99.90
35635;DHT22;21757;43.610;1.440;2022-11-11T04:06:08;9.40;99.90
35635;DHT22;21757;43.610;1.440;2022-11-11T04:08:53;9.40;99.90
35635;DHT22;21757;43.610;1.440;2022-11-11T04:14:06;9.40;99.90
35635;DHT22;21757;43.610;1.440;2022-11-11T04:16:51;9.40;99.90
35635;DHT22;21757;43.610;1.440;2022-11-11T04:19:17;9.40;99.90
35635;DHT22;21757;43.610;1.440;2022-11-11T04:22:02;9.30;99.90
35635;DHT22;21757;43.610;1.440;2022-11-11T04:24:27;9.30;99.90
35635;DHT22;21757;43.610;1.440;2022-11-11T04:27:13;9.40;99.90
35635;DHT22;21757;43.610;1.440;2022-11-11T04:29:41;9.50;99.90
35635;DHT22;21757;43.610;1.440;2022-11-11T04:32:15;9.60;99.90
35635;DHT22;21757;43.610;1.440;2022-11-11T04:35:01;9.70;99.90
35635;DHT22;21757;43.610;1.440;2022-11-11T04:37:31;9.60;99.90
35635;DHT22;21757;43.610;1.440;2022-11-11T04:39:56;9.60;99.90
35635;DHT22;21757;43.610;1.440;2022-11-11T04:42:41;9.60;99.90
35635;DHT22;21757;43.610;1.440;2022-11-11T04:45:09;9.60;99.90
35635;DHT22;21757;43.610;1.440;2022-11-11T04:50:23;9.70;99.90
35635;DHT22;21757;43.610;1.440;2022-11-11T04:52:49;9.70;99.90
35635;DHT22;21757;43.610;1.440;2022-11-11T04:55:15;9.80;99.90
35635;DHT22;21757;43.610;1.440;2022-11-11T04:57:59;9.90;99.90
35635;DHT22;21757;43.610;1.440;2022-11-11T05:00:25;9.90;99.90
35635;DHT22;21757;43.610;1.440;2022-11-11T05:02:56;9.90;99.90
35635;DHT22;21757;43.610;1.440;2022-11-11T05:08:36;10.00;99.90
35635;DHT22;21757;43.610;1.440;2022-11-11T05:11:34;10.10;99.90
35635;DHT22;21757;43.610;1.440;2022-11-11T05:14:02;10.20;99.90
35635;DHT22;21757;43.610;1.440;2022-11-11T05:16:48;10.30;99.90
35635;DHT22;21757;43.610;1.440;2022-11-11T05:19:33;10.30;99.90
35635;DHT22;21757;43.610;1.440;2022-11-11T05:24:43;10.30;99.90
35635;DHT22;21757;43.610;1.440;2022-11-11T05:27:27;10.30;99.90
35635;DHT22;21757;43.610;1.440;2022-11-11T05:29:54;10.40;99.90
35635;DHT22;21757;43.610;1.440;2022-11-11T05:32:21;10.40;99.90
35635;DHT22;21757;43.610;1.440;2022-11-11T05:34:47;10.40;99.90
35635;DHT22;21757;43.610;1.440;2022-11-11T05:37:13;10.40;99.90
35635;DHT22;21757;43.610;1.440;2022-11-11T05:39:39;10.40;99.90
35635;DHT22;21757;43.610;1.440;2022-11-11T05:42:05;10.40;99.90
35635;DHT22;21757;43.610;1.440;2022-11-11T05:44:31;10.40;99.90
35635;DHT22;21757;43.610;1.440;2022-11-11T05:46:57;10.40;99.90
35635;DHT22;21757;43.610;1.440;2022-11-11T05:49:23;10.40;99.90
35635;DHT22;21757;43.610;1.440;2022-11-11T05:51:50;10.50;99.90
35635;DHT22;21757;43.610;1.440;2022-11-11T05:54:16;10.50;99.90
35635;DHT22;21757;43.610;1.440;2022-11-11T05:56:42;10.40;99.90
35635;DHT22;21757;43.610;1.440;2022-11-11T05:59:08;10.30;99.90
35635;DHT22;21757;43.610;1.440;2022-11-11T06:01:34;10.30;99.90
35635;DHT22;21757;43.610;1.440;2022-11-11T06:04:00;10.30;99.90
35635;DHT22;21757;43.610;1.440;2022-11-11T06:06:26;10.30;99.90
35635;DHT22;21757;43.610;1.440;2022-11-11T06:08:52;10.20;99.90
35635;DHT22;21757;43.610;1.440;2022-11-11T06:11:18;10.10;99.90
35635;DHT22;21757;43.610;1.440;2022-11-11T06:13:44;10.00;99.90
35635;DHT22;21757;43.610;1.440;2022-11-11T06:16:09;9.90;99.90
35635;DHT22;21757;43.610;1.440;2022-11-11T06:18:35;9.90;99.90
35635;DHT22;21757;43.610;1.440;2022-11-11T06:21:01;9.80;99.90
35635;DHT22;21757;43.610;1.440;2022-11-11T06:23:27;9.70;99.90
35635;DHT22;21757;43.610;1.440;2022-11-11T06:25:54;9.60;99.90
35635;DHT22;21757;43.610;1.440;2022-11-11T06:31:04;9.60;99.90
35635;DHT22;21757;43.610;1.440;2022-11-11T06:33:32;9.50;99.90
35635;DHT22;21757;43.610;1.440;2022-11-11T06:35:59;9.50;99.90
35635;DHT22;21757;43.610;1.440;2022-11-11T06:38:25;9.50;99.90
35635;DHT22;21757;43.610;1.440;2022-11-11T06:40:51;9.40;99.90
35635;DHT22;21757;43.610;1.440;2022-11-11T06:43:16;9.40;99.90
35635;DHT22;21757;43.610;1.440;2022-11-11T06:45:42;9.40;99.90
35635;DHT22;21757;43.610;1.440;2022-11-11T06:48:08;9.50;99.90
35635;DHT22;21757;43.610;1.440;2022-11-11T06:50:34;9.50;99.90
35635;DHT22;21757;43.610;1.440;2022-11-11T06:53:08;9.50;99.90
35635;DHT22;21757;43.610;1.440;2022-11-11T06:55:34;9.50;99.90
35635;DHT22;21757;43.610;1.440;2022-11-11T06:58:06;9.50;99.90
35635;DHT22;21757;43.610;1.440;2022-11-11T07:00:33;9.50;99.90
35635;DHT22;21757;43.610;1.440;2022-11-11T07:03:00;9.50;99.90
35635;DHT22;21757;43.610;1.440;2022-11-11T07:05:26;9.50;99.90
35635;DHT22;21757;43.610;1.440;2022-11-11T07:07:51;9.50;99.90
35635;DHT22;21757;43.610;1.440;2022-11-11T07:10:18;9.50;99.90
35635;DHT22;21757;43.610;1.440;2022-11-11T07:12:44;9.50;99.90
35635;DHT22;21757;43.610;1.440;2022-11-11T07:15:10;9.60;99.90
35635;DHT22;21757;43.610;1.440;2022-11-11T07:17:36;9.60;99.90
35635;DHT22;21757;43.610;1.440;2022-11-11T07:20:01;9.60;99.90
35635;DHT22;21757;43.610;1.440;2022-11-11T07:22:27;9.70;99.90
35635;DHT22;21757;43.610;1.440;2022-11-11T07:24:53;9.80;99.90
35635;DHT22;21757;43.610;1.440;2022-11-11T07:27:19;9.80;99.90
35635;DHT22;21757;43.610;1.440;2022-11-11T07:29:45;9.80;99.90
35635;DHT22;21757;43.610;1.440;2022-11-11T07:32:13;9.90;99.90
35635;DHT22;21757;43.610;1.440;2022-11-11T07:34:39;9.90;99.90
35635;DHT22;21757;43.610;1.440;2022-11-11T07:37:04;10.00;99.90
35635;DHT22;21757;43.610;1.440;2022-11-11T07:39:30;10.10;99.90
35635;DHT22;21757;43.610;1.440;2022-11-11T07:41:56;10.20;99.90
35635;DHT22;21757;43.610;1.440;2022-11-11T07:44:21;10.20;99.90
35635;DHT22;21757;43.610;1.440;2022-11-11T07:46:47;10.30;99.90
35635;DHT22;21757;43.610;1.440;2022-11-11T07:49:13;10.40;99.90
35635;DHT22;21757;43.610;1.440;2022-11-11T07:51:38;10.40;99.90
35635;DHT22;21757;43.610;1.440;2022-11-11T07:54:04;10.50;99.90
35635;DHT22;21757;43.610;1.440;2022-11-11T07:56:29;10.50;99.90
35635;DHT22;21757;43.610;1.440;2022-11-11T07:58:55;10.50;99.90
35635;DHT22;21757;43.610;1.440;2022-11-11T08:01:21;10.50;99.90
35635;DHT22;21757;43.610;1.440;2022-11-11T08:03:46;10.60;99.90
35635;DHT22;21757;43.610;1.440;2022-11-11T08:06:16;10.70;99.90
35635;DHT22;21757;43.610;1.440;2022-11-11T08:08:42;10.80;99.90
35635;DHT22;21757;43.610;1.440;2022-11-11T08:11:08;10.90;99.90
35635;DHT22;21757;43.610;1.440;2022-11-11T08:13:33;11.20;99.90
35635;DHT22;21757;43.610;1.440;2022-11-11T08:16:09;12.10;99.90
35635;DHT22;21757;43.610;1.440;2022-11-11T08:18:35;12.50;99.90
35635;DHT22;21757;43.610;1.440;2022-11-11T08:21:02;12.70;99.90
35635;DHT22;21757;43.610;1.440;2022-11-11T08:23:28;13.00;99.90
35635;DHT22;21757;43.610;1.440;2022-11-11T08:26:01;13.20;99.90
35635;DHT22;21757;43.610;1.440;2022-11-11T08:28:28;13.30;99.90
35635;DHT22;21757;43.610;1.440;2022-11-11T08:30:57;13.40;99.90
35635;DHT22;21757;43.610;1.440;2022-11-11T08:33:23;13.70;99.90
35635;DHT22;21757;43.610;1.440;2022-11-11T08:35:49;13.80;99.90
35635;DHT22;21757;43.610;1.440;2022-11-11T08:38:14;13.90;99.90
35635;DHT22;21757;43.610;1.440;2022-11-11T08:40:40;14.00;99.90
35635;DHT22;21757;43.610;1.440;2022-11-11T08:43:06;14.30;99.90
35635;DHT22;21757;43.610;1.440;2022-11-11T08:45:32;14.30;99.90
35635;DHT22;21757;43.610;1.440;2022-11-11T08:47:57;14.40;99.90
35635;DHT22;21757;43.610;1.440;2022-11-11T08:50:24;14.40;99.90
35635;DHT22;21757;43.610;1.440;2022-11-11T08:52:53;14.50;99.90
35635;DHT22;21757;43.610;1.440;2022-11-11T08:55:19;14.70;99.90
35635;DHT22;21757;43.610;1.440;2022-11-11T08:57:45;14.80;99.90
35635;DHT22;21757;43.610;1.440;2022-11-11T09:00:11;14.90;99.90
35635;DHT22;21757;43.610;1.440;2022-11-11T09:02:37;14.90;99.90
35635;DHT22;21757;43.610;1.440;2022-11-11T09:05:04;15.00;99.90
35635;DHT22;21757;43.610;1.440;2022-11-11T09:07:31;15.10;99.90
35635;DHT22;21757;43.610;1.440;2022-11-11T09:09:56;15.20;99.90
35635;DHT22;21757;43.610;1.440;2022-11-11T09:12:22;15.20;99.90
35635;DHT22;21757;43.610;1.440;2022-11-11T09:14:48;15.30;99.90
35635;DHT22;21757;43.610;1.440;2022-11-11T09:17:15;15.40;99.90
35635;DHT22;21757;43.610;1.440;2022-11-11T09:19:40;15.50;99.90
35635;DHT22;21757;43.610;1.440;2022-11-11T09:22:06;15.50;99.90
35635;DHT22;21757;43.610;1.440;2022-11-11T09:24:32;15.60;99.90
35635;DHT22;21757;43.610;1.440;2022-11-11T09:26:57;15.80;99.90
35635;DHT22;21757;43.610;1.440;2022-11-11T09:29:23;15.80;99.90
35635;DHT22;21757;43.610;1.440;2022-11-11T09:31:49;15.80;99.90
35635;DHT22;21757;43.610;1.440;2022-11-11T09:34:14;15.70;99.90
35635;DHT22;21757;43.610;1.440;2022-11-11T09:36:41;15.90;99.90
35635;DHT22;21757;43.610;1.440;2022-11-11T09:39:07;15.90;99.90
35635;DHT22;21757;43.610;1.440;2022-11-11T09:41:47;15.90;99.90
35635;DHT22;21757;43.610;1.440;2022-11-11T09:50:02;16.20;99.90
35635;DHT22;21757;43.610;1.440;2022-11-11T09:55:29;16.40;99.90
35635;DHT22;21757;43.610;1.440;2022-11-11T09:57:59;16.40;99.90
35635;DHT22;21757;43.610;1.440;2022-11-11T10:00:32;16.50;99.90
35635;DHT22;21757;43.610;1.440;2022-11-11T10:03:19;16.60;99.90
35635;DHT22;21757;43.610;1.440;2022-11-11T10:06:08;16.60;99.90
35635;DHT22;21757;43.610;1.440;2022-11-11T10:12:02;16.70;99.90
35635;DHT22;21757;43.610;1.440;2022-11-11T10:14:08;16.80;99.90
35635;DHT22;21757;43.610;1.440;2022-11-11T10:22:34;17.00;99.90
35635;DHT22;21757;43.610;1.440;2022-11-11T10:27:33;17.10;99.90
35635;DHT22;21757;43.610;1.440;2022-11-11T10:30:07;17.20;99.90
35635;DHT22;21757;43.610;1.440;2022-11-11T10:32:38;17.20;99.90
35635;DHT22;21757;43.610;1.440;2022-11-11T10:35:19;17.20;99.90
35635;DHT22;21757;43.610;1.440;2022-11-11T10:37:45;17.30;99.90
35635;DHT22;21757;43.610;1.440;2022-11-11T10:40:22;17.40;99.90
35635;DHT22;21757;43.610;1.440;2022-11-11T10:42:49;17.40;99.90
35635;DHT22;21757;43.610;1.440;2022-11-11T10:47:51;17.60;99.90
35635;DHT22;21757;43.610;1.440;2022-11-11T10:50:29;17.60;99.90
35635;DHT22;21757;43.610;1.440;2022-11-11T10:58:48;17.80;99.90
35635;DHT22;21757;43.610;1.440;2022-11-11T11:01:21;17.80;99.90
35635;DHT22;21757;43.610;1.440;2022-11-11T11:04:03;17.90;99.90
35635;DHT22;21757;43.610;1.440;2022-11-11T11:06:33;18.00;99.90
35635;DHT22;21757;43.610;1.440;2022-11-11T11:11:55;18.00;99.90
35635;DHT22;21757;43.610;1.440;2022-11-11T11:14:28;18.20;99.90
35635;DHT22;21757;43.610;1.440;2022-11-11T11:16:59;18.20;99.90
35635;DHT22;21757;43.610;1.440;2022-11-11T11:19:29;18.20;99.90
35635;DHT22;21757;43.610;1.440;2022-11-11T11:21:56;18.30;99.90
35635;DHT22;21757;43.610;1.440;2022-11-11T11:24:29;18.30;99.90
35635;DHT22;21757;43.610;1.440;2022-11-11T11:26:58;18.30;99.90
35635;DHT22;21757;43.610;1.440;2022-11-11T11:29:37;18.40;99.90
35635;DHT22;21757;43.610;1.440;2022-11-11T11:32:20;18.50;99.90
35635;DHT22;21757;43.610;1.440;2022-11-11T11:34:51;18.50;99.90
35635;DHT22;21757;43.610;1.440;2022-11-11T11:37:18;18.60;99.90
35635;DHT22;21757;43.610;1.440;2022-11-11T11:39:45;18.60;99.90
35635;DHT22;21757;43.610;1.440;2022-11-11T11:42:36;18.70;99.90
35635;DHT22;21757;43.610;1.440;2022-11-11T11:45:21;18.70;99.90
35635;DHT22;21757;43.610;1.440;2022-11-11T11:55:37;18.80;99.90
35635;DHT22;21757;43.610;1.440;2022-11-11T12:01:13;18.90;99.90
35635;DHT22;21757;43.610;1.440;2022-11-11T12:04:33;18.90;99.90
35635;DHT22;21757;43.610;1.440;2022-11-11T12:07:07;18.90;99.90
35635;DHT22;21757;43.610;1.440;2022-11-11T12:15:16;19.10;99.90
35635;DHT22;21757;43.610;1.440;2022-11-11T12:18:09;19.10;99.90
35635;DHT22;21757;43.610;1.440;2022-11-11T12:20:47;19.20;99.90
35635;DHT22;21757;43.610;1.440;2022-11-11T12:26:27;19.10;99.90
35635;DHT22;21757;43.610;1.440;2022-11-11T12:32:00;19.20;99.90
35635;DHT22;21757;43.610;1.440;2022-11-11T12:35:20;19.30;99.90
35635;DHT22;21757;43.610;1.440;2022-11-11T12:54:01;19.60;99.90
35635;DHT22;21757;43.610;1.440;2022-11-11T13:10:43;19.70;99.90
35635;DHT22;21757;43.610;1.440;2022-11-11T13:15:38;19.70;99.90
35635;DHT22;21757;43.610;1.440;2022-11-11T13:18:11;19.80;99.90
35635;DHT22;21757;43.610;1.440;2022-11-11T13:23:19;19.80;99.90
35635;DHT22;21757;43.610;1.440;2022-11-11T13:25:51;19.80;99.90
35635;DHT22;21757;43.610;1.440;2022-11-11T13:28:23;19.70;99.90
35635;DHT22;21757;43.610;1.440;2022-11-11T13:31:16;19.70;99.90
35635;DHT22;21757;43.610;1.440;2022-11-11T13:33:50;19.80;99.90
35635;DHT22;21757;43.610;1.440;2022-11-11T13:36:20;19.80;99.90
35635;DHT22;21757;43.610;1.440;2022-11-11T13:39:00;19.90;99.90
35635;DHT22;21757;43.610;1.440;2022-11-11T13:41:33;19.90;99.90
35635;DHT22;21757;43.610;1.440;2022-11-11T13:44:02;19.80;99.90
35635;DHT22;21757;43.610;1.440;2022-11-11T13:48:58;19.90;99.90
35635;DHT22;21757;43.610;1.440;2022-11-11T13:51:41;19.90;99.90
35635;DHT22;21757;43.610;1.440;2022-11-11T13:56:52;20.00;99.90
35635;DHT22;21757;43.610;1.440;2022-11-11T13:59:24;20.00;99.90
35635;DHT22;21757;43.610;1.440;2022-11-11T14:02:24;20.00;99.90
35635;DHT22;21757;43.610;1.440;2022-11-11T14:12:53;20.00;99.90
35635;DHT22;21757;43.610;1.440;2022-11-11T14:15:41;20.00;99.90
35635;DHT22;21757;43.610;1.440;2022-11-11T14:20:54;20.00;99.90
35635;DHT22;21757;43.610;1.440;2022-11-11T14:36:45;19.90;99.90
35635;DHT22;21757;43.610;1.440;2022-11-11T14:41:58;19.90;99.90
35635;DHT22;21757;43.610;1.440;2022-11-11T14:52:31;20.00;99.90
35635;DHT22;21757;43.610;1.440;2022-11-11T14:57:33;19.80;99.90
35635;DHT22;21757;43.610;1.440;2022-11-11T15:00:08;19.90;99.90
35635;DHT22;21757;43.610;1.440;2022-11-11T15:08:22;19.80;99.90
35635;DHT22;21757;43.610;1.440;2022-11-11T15:21:39;19.70;99.90
35635;DHT22;21757;43.610;1.440;2022-11-11T15:24:29;19.60;99.90
35635;DHT22;21757;43.610;1.440;2022-11-11T15:32:31;19.50;99.90
35635;DHT22;21757;43.610;1.440;2022-11-11T15:35:34;19.50;99.90
35635;DHT22;21757;43.610;1.440;2022-11-11T15:38:03;19.50;99.90
35635;DHT22;21757;43.610;1.440;2022-11-11T15:40:53;19.50;99.90
35635;DHT22;21757;43.610;1.440;2022-11-11T15:43:41;19.40;99.90
35635;DHT22;21757;43.610;1.440;2022-11-11T15:46:12;19.40;99.90
35635;DHT22;21757;43.610;1.440;2022-11-11T15:48:46;19.40;99.90
35635;DHT22;21757;43.610;1.440;2022-11-11T15:53:47;19.30;99.90
35635;DHT22;21757;43.610;1.440;2022-11-11T15:56:29;19.20;99.90
35635;DHT22;21757;43.610;1.440;2022-11-11T15:58:55;19.10;99.90
35635;DHT22;21757;43.610;1.440;2022-11-11T16:01:24;19.00;99.90
35635;DHT22;21757;43.610;1.440;2022-11-11T16:03:51;19.00;99.90
35635;DHT22;21757;43.610;1.440;2022-11-11T16:06:17;19.00;99.90
35635;DHT22;21757;43.610;1.440;2022-11-11T16:08:50;18.90;99.90
35635;DHT22;21757;43.610;1.440;2022-11-11T16:11:18;18.90;99.90
35635;DHT22;21757;43.610;1.440;2022-11-11T16:13:58;18.90;99.90
35635;DHT22;21757;43.610;1.440;2022-11-11T16:16:30;18.80;99.90
35635;DHT22;21757;43.610;1.440;2022-11-11T16:19:07;18.70;99.90
35635;DHT22;21757;43.610;1.440;2022-11-11T16:21:51;18.70;99.90
35635;DHT22;21757;43.610;1.440;2022-11-11T16:24:27;18.60;99.90
35635;DHT22;21757;43.610;1.440;2022-11-11T16:26:55;18.50;99.90
35635;DHT22;21757;43.610;1.440;2022-11-11T16:29:22;18.50;99.90
35635;DHT22;21757;43.610;1.440;2022-11-11T16:31:49;18.50;99.90
35635;DHT22;21757;43.610;1.440;2022-11-11T16:37:09;18.40;99.90
35635;DHT22;21757;43.610;1.440;2022-11-11T16:39:36;18.30;99.90
35635;DHT22;21757;43.610;1.440;2022-11-11T16:42:26;18.20;99.90
35635;DHT22;21757;43.610;1.440;2022-11-11T16:45:07;18.20;99.90
35635;DHT22;21757;43.610;1.440;2022-11-11T16:47:45;18.30;99.90
35635;DHT22;21757;43.610;1.440;2022-11-11T16:50:22;18.30;99.90
35635;DHT22;21757;43.610;1.440;2022-11-11T16:53:00;18.30;99.90
35635;DHT22;21757;43.610;1.440;2022-11-11T16:55:34;18.20;99.90
35635;DHT22;21757;43.610;1.440;2022-11-11T16:58:09;18.20;99.90
35635;DHT22;21757;43.610;1.440;2022-11-11T17:00:37;18.10;99.90
35635;DHT22;21757;43.610;1.440;2022-11-11T17:03:23;18.10;99.90
35635;DHT22;21757;43.610;1.440;2022-11-11T17:05:57;17.90;99.90
35635;DHT22;21757;43.610;1.440;2022-11-11T17:08:38;17.80;99.90
35635;DHT22;21757;43.610;1.440;2022-11-11T17:13:52;17.80;99.90
35635;DHT22;21757;43.610;1.440;2022-11-11T17:16:24;17.70;99.90
35635;DHT22;21757;43.610;1.440;2022-11-11T17:18:50;17.80;99.90
35635;DHT22;21757;43.610;1.440;2022-11-11T17:21:16;17.70;99.90
35635;DHT22;21757;43.610;1.440;2022-11-11T17:23:42;17.50;99.90
35635;DHT22;21757;43.610;1.440;2022-11-11T17:26:07;17.60;99.90
35635;DHT22;21757;43.610;1.440;2022-11-11T17:28:34;17.70;99.90
35635;DHT22;21757;43.610;1.440;2022-11-11T17:31:08;17.50;99.90
35635;DHT22;21757;43.610;1.440;2022-11-11T17:33:34;17.50;99.90
35635;DHT22;21757;43.610;1.440;2022-11-11T17:36:00;17.50;99.90
35635;DHT22;21757;43.610;1.440;2022-11-11T17:38:26;17.40;99.90
35635;DHT22;21757;43.610;1.440;2022-11-11T17:40:52;17.40;99.90
35635;DHT22;21757;43.610;1.440;2022-11-11T17:43:18;17.40;99.90
35635;DHT22;21757;43.610;1.440;2022-11-11T17:45:44;17.30;99.90
35635;DHT22;21757;43.610;1.440;2022-11-11T17:48:10;17.30;99.90
35635;DHT22;21757;43.610;1.440;2022-11-11T17:50:37;17.30;99.90
35635;DHT22;21757;43.610;1.440;2022-11-11T17:53:06;17.40;99.90
35635;DHT22;21757;43.610;1.440;2022-11-11T17:55:32;17.30;99.90
35635;DHT22;21757;43.610;1.440;2022-11-11T17:57:59;17.40;99.90
35635;DHT22;21757;43.610;1.440;2022-11-11T18:00:25;17.30;99.90
35635;DHT22;21757;43.610;1.440;2022-11-11T18:02:52;17.40;99.90
35635;DHT22;21757;43.610;1.440;2022-11-11T18:05:19;17.20;99.90
35635;DHT22;21757;43.610;1.440;2022-11-11T18:07:45;17.20;99.90
35635;DHT22;21757;43.610;1.440;2022-11-11T18:10:11;17.20;99.90
35635;DHT22;21757;43.610;1.440;2022-11-11T18:12:37;17.10;99.90
35635;DHT22;21757;43.610;1.440;2022-11-11T18:15:04;17.20;99.90
35635;DHT22;21757;43.610;1.440;2022-11-11T18:17:30;17.10;99.90
35635;DHT22;21757;43.610;1.440;2022-11-11T18:19:56;17.00;99.90
35635;DHT22;21757;43.610;1.440;2022-11-11T18:22:21;17.00;99.90
35635;DHT22;21757;43.610;1.440;2022-11-11T18:24:47;17.00;99.90
35635;DHT22;21757;43.610;1.440;2022-11-11T18:27:13;17.00;99.90
35635;DHT22;21757;43.610;1.440;2022-11-11T18:29:39;17.10;99.90
35635;DHT22;21757;43.610;1.440;2022-11-11T18:32:05;17.00;99.90
35635;DHT22;21757;43.610;1.440;2022-11-11T18:37:07;17.10;99.90
35635;DHT22;21757;43.610;1.440;2022-11-11T18:39:32;17.10;99.90
35635;DHT22;21757;43.610;1.440;2022-11-11T18:41:58;17.20;99.90
35635;DHT22;21757;43.610;1.440;2022-11-11T18:44:23;17.50;99.90
35635;DHT22;21757;43.610;1.440;2022-11-11T18:46:49;17.30;99.90
35635;DHT22;21757;43.610;1.440;2022-11-11T18:49:15;17.30;99.90
35635;DHT22;21757;43.610;1.440;2022-11-11T18:51:41;17.30;99.90
35635;DHT22;21757;43.610;1.440;2022-11-11T18:54:07;17.50;99.90
35635;DHT22;21757;43.610;1.440;2022-11-11T18:56:37;17.40;99.90
35635;DHT22;21757;43.610;1.440;2022-11-11T18:59:04;17.40;99.90
35635;DHT22;21757;43.610;1.440;2022-11-11T19:01:32;17.50;99.90